sensor_id;sensor_type;location;lat;lon;timestamp;pressure;altitude;pressure_sealevel;temperature;humidity
9717;BME280;4897;43.570;27.832;2023-09-18T00:02:11;99662.69;;;15.81;100.00
9717;BME280;4897;43.570;27.832;2023-09-18T00:04:37;99660.88;;;15.72;100.00
9717;BME280;4897;43.570;27.832;2023-09-18T00:07:04;99658.38;;;15.61;100.00
9717;BME280;4897;43.570;27.832;2023-09-18T00:09:31;99659.13;;;15.53;100.00
9717;BME280;4897;43.570;27.832;2023-09-18T00:11:59;99633.78;;;15.37;100.00
9717;BME280;4897;43.570;27.832;2023-09-18T00:14:26;99653.31;;;15.48;100.00
9717;BME280;4897;43.570;27.832;2023-09-18T00:16:53;99657.72;;;15.40;100.00
9717;BME280;4897;43.570;27.832;2023-09-18T00:19:22;99617.16;;;15.14;100.00
9717;BME280;4897;43.570;27.832;2023-09-18T00:21:49;99651.38;;;15.31;100.00
9717;BME280;4897;43.570;27.832;2023-09-18T00:24:17;99651.63;;;15.38;100.00
9717;BME280;4897;43.570;27.832;2023-09-18T00:26:44;99640.84;;;15.38;100.00
9717;BME280;4897;43.570;27.832;2023-09-18T00:29:15;99622.91;;;15.29;100.00
9717;BME280;4897;43.570;27.832;2023-09-18T00:31:42;99658.22;;;15.26;100.00
9717;BME280;4897;43.570;27.832;2023-09-18T00:34:09;99655.13;;;15.20;100.00
9717;BME280;4897;43.570;27.832;2023-09-18T00:36:36;99649.38;;;15.06;100.00
9717;BME280;4897;43.570;27.832;2023-09-18T00:39:03;99655.72;;;15.05;100.00
9717;BME280;4897;43.570;27.832;2023-09-18T00:41:30;99648.94;;;15.01;100.00
9717;BME280;4897;43.570;27.832;2023-09-18T00:43:57;99643.03;;;14.88;100.00
9717;BME280;4897;43.570;27.832;2023-09-18T00:46:25;99651.53;;;14.93;100.00
9717;BME280;4897;43.570;27.832;2023-09-18T00:48:53;99633.16;;;14.69;100.00
9717;BME280;4897;43.570;27.832;2023-09-18T00:51:20;99653.41;;;14.73;100.00
9717;BME280;4897;43.570;27.832;2023-09-18T00:53:48;99644.88;;;14.78;100.00
9717;BME280;4897;43.570;27.832;2023-09-18T00:56:16;99642.63;;;14.73;100.00
9717;BME280;4897;43.570;27.832;2023-09-18T00:58:45;99641.91;;;14.71;100.00
9717;BME280;4897;43.570;27.832;2023-09-18T01:01:16;99663.47;;;14.71;100.00
9717;BME280;4897;43.570;27.832;2023-09-18T01:03:49;99602.59;;;14.32;100.00
9717;BME280;4897;43.570;27.832;2023-09-18T01:06:18;99650.69;;;14.73;100.00
9717;BME280;4897;43.570;27.832;2023-09-18T01:08:45;99583.91;;;14.30;100.00
9717;BME280;4897;43.570;27.832;2023-09-18T01:11:24;99620.84;;;14.57;100.00
9717;BME280;4897;43.570;27.832;2023-09-18T01:13:58;99628.91;;;14.57;100.00
9717;BME280;4897;43.570;27.832;2023-09-18T01:16:34;99636.88;;;14.49;100.00
9717;BME280;4897;43.570;27.832;2023-09-18T01:19:04;99626.38;;;14.46;100.00
9717;BME280;4897;43.570;27.832;2023-09-18T01:21:31;99608.53;;;14.26;100.00
9717;BME280;4897;43.570;27.832;2023-09-18T01:24:02;99625.81;;;14.43;100.00
9717;BME280;4897;43.570;27.832;2023-09-18T01:26:29;99634.31;;;14.48;100.00
9717;BME280;4897;43.570;27.832;2023-09-18T01:28:56;99633.75;;;14.44;100.00
9717;BME280;4897;43.570;27.832;2023-09-18T01:31:23;99626.69;;;14.43;100.00
9717;BME280;4897;43.570;27.832;2023-09-18T01:33:52;99637.13;;;14.46;100.00
9717;BME280;4897;43.570;27.832;2023-09-18T01:36:19;99649.59;;;14.37;100.00
9717;BME280;4897;43.570;27.832;2023-09-18T01:38:47;99637.44;;;14.43;100.00
9717;BME280;4897;43.570;27.832;2023-09-18T01:41:17;99639.56;;;14.49;100.00
9717;BME280;4897;43.570;27.832;2023-09-18T01:43:44;99644.22;;;14.47;100.00
9717;BME280;4897;43.570;27.832;2023-09-18T01:46:11;99639.44;;;14.41;100.00
9717;BME280;4897;43.570;27.832;2023-09-18T01:48:45;99646.50;;;14.42;100.00
9717;BME280;4897;43.570;27.832;2023-09-18T01:51:13;99646.34;;;14.34;100.00
9717;BME280;4897;43.570;27.832;2023-09-18T01:53:41;99629.03;;;14.27;100.00
9717;BME280;4897;43.570;27.832;2023-09-18T01:56:08;99644.38;;;14.46;100.00
9717;BME280;4897;43.570;27.832;2023-09-18T01:58:36;99643.09;;;14.50;100.00
9717;BME280;4897;43.570;27.832;2023-09-18T02:01:03;99643.94;;;14.40;100.00
9717;BME280;4897;43.570;27.832;2023-09-18T02:03:30;99609.94;;;14.11;100.00
9717;BME280;4897;43.570;27.832;2023-09-18T02:05:57;99647.63;;;14.39;100.00
9717;BME280;4897;43.570;27.832;2023-09-18T02:08:24;99639.44;;;14.41;100.00
9717;BME280;4897;43.570;27.832;2023-09-18T02:10:50;99653.44;;;14.35;100.00
9717;BME280;4897;43.570;27.832;2023-09-18T02:13:17;99648.06;;;14.35;100.00
9717;BME280;4897;43.570;27.832;2023-09-18T02:15:46;99652.59;;;14.34;100.00
9717;BME280;4897;43.570;27.832;2023-09-18T02:18:12;99644.78;;;14.31;100.00
9717;BME280;4897;43.570;27.832;2023-09-18T02:20:41;99560.28;;;13.77;100.00
9717;BME280;4897;43.570;27.832;2023-09-18T02:23:09;99622.53;;;14.10;100.00
9717;BME280;4897;43.570;27.832;2023-09-18T02:25:36;99642.66;;;14.16;100.00
9717;BME280;4897;43.570;27.832;2023-09-18T02:28:04;99653.97;;;14.10;100.00
9717;BME280;4897;43.570;27.832;2023-09-18T02:30:31;99634.69;;;13.86;100.00
9717;BME280;4897;43.570;27.832;2023-09-18T02:32:59;99648.25;;;13.94;100.00
9717;BME280;4897;43.570;27.832;2023-09-18T02:35:28;99651.53;;;13.97;100.00
9717;BME280;4897;43.570;27.832;2023-09-18T02:37:55;99647.84;;;13.98;100.00
9717;BME280;4897;43.570;27.832;2023-09-18T02:40:22;99656.06;;;13.97;100.00
9717;BME280;4897;43.570;27.832;2023-09-18T02:42:49;99636.66;;;13.84;100.00
9717;BME280;4897;43.570;27.832;2023-09-18T02:45:16;99635.25;;;13.89;100.00
9717;BME280;4897;43.570;27.832;2023-09-18T02:47:43;99643.19;;;13.91;100.00
9717;BME280;4897;43.570;27.832;2023-09-18T02:50:11;99653.06;;;13.81;100.00
9717;BME280;4897;43.570;27.832;2023-09-18T02:52:38;99659.97;;;13.74;100.00
9717;BME280;4897;43.570;27.832;2023-09-18T02:55:05;99656.13;;;13.67;100.00
9717;BME280;4897;43.570;27.832;2023-09-18T02:57:32;99657.69;;;13.59;100.00
9717;BME280;4897;43.570;27.832;2023-09-18T02:59:59;99648.31;;;13.54;100.00
9717;BME280;4897;43.570;27.832;2023-09-18T03:02:26;99641.13;;;13.54;100.00
9717;BME280;4897;43.570;27.832;2023-09-18T03:04:53;99665.34;;;13.64;100.00
9717;BME280;4897;43.570;27.832;2023-09-18T03:07:22;99660.25;;;13.71;100.00
9717;BME280;4897;43.570;27.832;2023-09-18T03:09:48;99662.78;;;13.62;100.00
9717;BME280;4897;43.570;27.832;2023-09-18T03:12:15;99639.69;;;13.50;100.00
9717;BME280;4897;43.570;27.832;2023-09-18T03:14:42;99644.38;;;13.58;100.00
9717;BME280;4897;43.570;27.832;2023-09-18T03:17:09;99653.44;;;13.67;100.00
9717;BME280;4897;43.570;27.832;2023-09-18T03:19:36;99661.69;;;13.75;100.00
9717;BME280;4897;43.570;27.832;2023-09-18T03:22:03;99643.28;;;13.80;100.00
9717;BME280;4897;43.570;27.832;2023-09-18T03:24:31;99667.69;;;14.07;100.00
9717;BME280;4897;43.570;27.832;2023-09-18T03:26:58;99666.69;;;14.27;100.00
9717;BME280;4897;43.570;27.832;2023-09-18T03:29:25;99632.72;;;14.16;100.00
9717;BME280;4897;43.570;27.832;2023-09-18T03:31:52;99660.38;;;14.47;100.00
9717;BME280;4897;43.570;27.832;2023-09-18T03:34:18;99646.47;;;14.61;100.00
9717;BME280;4897;43.570;27.832;2023-09-18T03:36:45;99645.63;;;14.61;100.00
9717;BME280;4897;43.570;27.832;2023-09-18T03:39:12;99652.69;;;14.71;100.00
9717;BME280;4897;43.570;27.832;2023-09-18T03:41:40;99509.31;;;13.94;100.00
9717;BME280;4897;43.570;27.832;2023-09-18T03:44:07;99643.84;;;14.98;100.00
9717;BME280;4897;43.570;27.832;2023-09-18T03:46:35;99629.28;;;14.91;100.00
9717;BME280;4897;43.570;27.832;2023-09-18T03:49:02;99641.84;;;15.09;100.00
9717;BME280;4897;43.570;27.832;2023-09-18T03:51:29;99638.13;;;15.10;100.00
9717;BME280;4897;43.570;27.832;2023-09-18T03:53:56;99648.31;;;15.16;100.00
9717;BME280;4897;43.570;27.832;2023-09-18T03:56:23;99529.66;;;14.45;100.00
9717;BME280;4897;43.570;27.832;2023-09-18T03:58:51;99653.63;;;15.36;100.00
9717;BME280;4897;43.570;27.832;2023-09-18T04:01:18;99653.66;;;15.45;100.00
9717;BME280;4897;43.570;27.832;2023-09-18T04:03:45;99637.47;;;15.45;100.00
9717;BME280;4897;43.570;27.832;2023-09-18T04:06:12;99666.88;;;15.66;100.00
9717;BME280;4897;43.570;27.832;2023-09-18T04:08:39;99662.03;;;15.69;100.00
9717;BME280;4897;43.570;27.832;2023-09-18T04:11:06;99650.94;;;15.72;100.00
9717;BME280;4897;43.570;27.832;2023-09-18T04:13:35;99662.16;;;15.95;100.00
9717;BME280;4897;43.570;27.832;2023-09-18T04:16:04;99666.34;;;16.07;100.00
9717;BME280;4897;43.570;27.832;2023-09-18T04:18:31;99668.50;;;16.21;100.00
9717;BME280;4897;43.570;27.832;2023-09-18T04:20:58;99663.81;;;16.41;100.00
9717;BME280;4897;43.570;27.832;2023-09-18T04:23:28;99651.03;;;16.60;100.00
9717;BME280;4897;43.570;27.832;2023-09-18T04:25:55;99661.91;;;16.68;100.00
9717;BME280;4897;43.570;27.832;2023-09-18T04:28:23;99628.66;;;16.50;100.00
9717;BME280;4897;43.570;27.832;2023-09-18T04:30:50;99655.72;;;16.58;100.00
9717;BME280;4897;43.570;27.832;2023-09-18T04:33:18;99615.84;;;16.17;100.00
9717;BME280;4897;43.570;27.832;2023-09-18T04:35:46;99662.09;;;16.40;100.00
9717;BME280;4897;43.570;27.832;2023-09-18T04:38:14;99661.66;;;16.27;100.00
9717;BME280;4897;43.570;27.832;2023-09-18T04:40:41;99652.38;;;16.29;100.00
9717;BME280;4897;43.570;27.832;2023-09-18T04:43:08;99662.66;;;16.43;100.00
9717;BME280;4897;43.570;27.832;2023-09-18T04:45:35;99653.53;;;16.44;100.00
9717;BME280;4897;43.570;27.832;2023-09-18T04:48:02;99659.72;;;16.54;100.00
9717;BME280;4897;43.570;27.832;2023-09-18T04:50:32;99662.81;;;16.59;100.00
9717;BME280;4897;43.570;27.832;2023-09-18T04:53:00;99665.38;;;16.61;100.00
9717;BME280;4897;43.570;27.832;2023-09-18T04:55:29;99646.13;;;16.46;100.00
9717;BME280;4897;43.570;27.832;2023-09-18T04:57:56;99670.69;;;16.70;100.00
9717;BME280;4897;43.570;27.832;2023-09-18T05:00:25;99628.53;;;16.52;100.00
9717;BME280;4897;43.570;27.832;2023-09-18T05:02:52;99674.66;;;16.84;100.00
9717;BME280;4897;43.570;27.832;2023-09-18T05:05:19;99683.16;;;16.89;100.00
9717;BME280;4897;43.570;27.832;2023-09-18T05:07:48;99651.16;;;16.76;100.00
9717;BME280;4897;43.570;27.832;2023-09-18T05:10:15;99660.91;;;16.95;100.00
9717;BME280;4897;43.570;27.832;2023-09-18T05:12:42;99673.38;;;17.14;100.00
9717;BME280;4897;43.570;27.832;2023-09-18T05:15:09;99673.28;;;17.31;100.00
9717;BME280;4897;43.570;27.832;2023-09-18T05:17:42;99666.75;;;17.42;100.00
9717;BME280;4897;43.570;27.832;2023-09-18T05:20:10;99667.41;;;17.62;100.00
9717;BME280;4897;43.570;27.832;2023-09-18T05:22:39;99645.59;;;17.63;100.00
9717;BME280;4897;43.570;27.832;2023-09-18T05:25:09;99673.59;;;17.88;100.00
9717;BME280;4897;43.570;27.832;2023-09-18T05:27:36;99662.75;;;17.80;100.00
9717;BME280;4897;43.570;27.832;2023-09-18T05:30:10;99654.03;;;18.02;100.00
9717;BME280;4897;43.570;27.832;2023-09-18T05:32:38;99656.94;;;18.08;100.00
9717;BME280;4897;43.570;27.832;2023-09-18T05:35:06;99650.50;;;18.09;100.00
9717;BME280;4897;43.570;27.832;2023-09-18T05:37:35;99649.84;;;18.31;100.00
9717;BME280;4897;43.570;27.832;2023-09-18T05:40:03;99651.94;;;18.46;100.00
9717;BME280;4897;43.570;27.832;2023-09-18T05:42:32;99659.72;;;18.57;100.00
9717;BME280;4897;43.570;27.832;2023-09-18T05:44:59;99665.16;;;18.65;100.00
9717;BME280;4897;43.570;27.832;2023-09-18T05:47:26;99643.81;;;18.54;100.00
9717;BME280;4897;43.570;27.832;2023-09-18T05:49:55;99655.00;;;18.83;100.00
9717;BME280;4897;43.570;27.832;2023-09-18T05:52:22;99654.94;;;19.07;100.00
9717;BME280;4897;43.570;27.832;2023-09-18T05:54:50;99643.25;;;19.14;100.00
9717;BME280;4897;43.570;27.832;2023-09-18T05:57:17;99652.22;;;19.23;100.00
9717;BME280;4897;43.570;27.832;2023-09-18T05:59:46;99647.59;;;19.48;100.00
9717;BME280;4897;43.570;27.832;2023-09-18T06:02:13;99647.56;;;19.94;100.00
9717;BME280;4897;43.570;27.832;2023-09-18T06:04:42;99646.94;;;20.23;100.00
9717;BME280;4897;43.570;27.832;2023-09-18T06:07:08;99638.28;;;20.20;100.00
9717;BME280;4897;43.570;27.832;2023-09-18T06:09:35;99641.31;;;20.25;100.00
9717;BME280;4897;43.570;27.832;2023-09-18T06:12:02;99642.91;;;20.42;100.00
9717;BME280;4897;43.570;27.832;2023-09-18T06:14:30;99648.94;;;20.52;100.00
9717;BME280;4897;43.570;27.832;2023-09-18T06:17:01;99642.44;;;20.53;100.00
9717;BME280;4897;43.570;27.832;2023-09-18T06:19:27;99648.00;;;20.59;100.00
9717;BME280;4897;43.570;27.832;2023-09-18T06:21:54;99657.91;;;20.75;100.00
9717;BME280;4897;43.570;27.832;2023-09-18T06:24:23;99622.66;;;20.67;100.00
9717;BME280;4897;43.570;27.832;2023-09-18T06:26:50;99642.50;;;20.90;100.00
9717;BME280;4897;43.570;27.832;2023-09-18T06:29:18;99657.94;;;21.12;100.00
9717;BME280;4897;43.570;27.832;2023-09-18T06:31:45;99663.75;;;21.24;100.00
9717;BME280;4897;43.570;27.832;2023-09-18T06:34:14;99552.06;;;20.73;100.00
9717;BME280;4897;43.570;27.832;2023-09-18T06:36:40;99656.00;;;21.35;100.00
9717;BME280;4897;43.570;27.832;2023-09-18T06:39:07;99572.72;;;20.97;100.00
9717;BME280;4897;43.570;27.832;2023-09-18T06:41:34;99627.75;;;21.36;100.00
9717;BME280;4897;43.570;27.832;2023-09-18T06:44:02;99672.34;;;21.65;100.00
9717;BME280;4897;43.570;27.832;2023-09-18T06:46:29;99666.50;;;21.82;100.00
9717;BME280;4897;43.570;27.832;2023-09-18T06:48:56;99662.66;;;21.91;100.00
9717;BME280;4897;43.570;27.832;2023-09-18T06:51:24;99580.25;;;21.54;100.00
9717;BME280;4897;43.570;27.832;2023-09-18T06:53:51;99656.31;;;22.20;100.00
9717;BME280;4897;43.570;27.832;2023-09-18T06:56:18;99653.44;;;22.28;100.00
9717;BME280;4897;43.570;27.832;2023-09-18T06:58:45;99649.06;;;22.27;100.00
9717;BME280;4897;43.570;27.832;2023-09-18T07:01:13;99648.00;;;22.28;100.00
9717;BME280;4897;43.570;27.832;2023-09-18T07:03:40;99650.69;;;22.43;100.00
9717;BME280;4897;43.570;27.832;2023-09-18T07:06:07;99621.31;;;22.38;100.00
9717;BME280;4897;43.570;27.832;2023-09-18T07:08:36;99652.66;;;22.70;100.00
9717;BME280;4897;43.570;27.832;2023-09-18T07:11:02;99651.22;;;22.74;100.00
9717;BME280;4897;43.570;27.832;2023-09-18T07:13:29;99662.06;;;22.88;100.00
9717;BME280;4897;43.570;27.832;2023-09-18T07:15:56;99652.06;;;22.95;100.00
9717;BME280;4897;43.570;27.832;2023-09-18T07:18:23;99649.53;;;22.94;100.00
9717;BME280;4897;43.570;27.832;2023-09-18T07:20:50;99647.91;;;22.99;100.00
9717;BME280;4897;43.570;27.832;2023-09-18T07:23:17;99629.75;;;23.13;100.00
9717;BME280;4897;43.570;27.832;2023-09-18T07:25:47;99651.56;;;23.34;100.00
9717;BME280;4897;43.570;27.832;2023-09-18T07:28:14;99651.66;;;23.26;100.00
9717;BME280;4897;43.570;27.832;2023-09-18T07:30:46;99646.78;;;23.15;100.00
9717;BME280;4897;43.570;27.832;2023-09-18T07:33:13;99648.00;;;23.34;100.00
9717;BME280;4897;43.570;27.832;2023-09-18T07:35:45;99654.72;;;23.72;100.00
9717;BME280;4897;43.570;27.832;2023-09-18T07:38:13;99637.53;;;23.78;100.00
9717;BME280;4897;43.570;27.832;2023-09-18T07:40:40;99646.31;;;24.14;100.00
9717;BME280;4897;43.570;27.832;2023-09-18T07:43:09;99654.19;;;24.43;100.00
9717;BME280;4897;43.570;27.832;2023-09-18T07:45:38;99654.66;;;24.73;100.00
9717;BME280;4897;43.570;27.832;2023-09-18T07:48:05;99618.88;;;24.61;100.00
9717;BME280;4897;43.570;27.832;2023-09-18T07:50:32;99647.97;;;24.95;100.00
9717;BME280;4897;43.570;27.832;2023-09-18T07:52:59;99653.88;;;24.99;100.00
9717;BME280;4897;43.570;27.832;2023-09-18T07:55:26;99656.41;;;25.00;100.00
9717;BME280;4897;43.570;27.832;2023-09-18T07:57:53;99653.44;;;25.02;99.51
9717;BME280;4897;43.570;27.832;2023-09-18T08:00:22;99639.97;;;25.00;97.88
9717;BME280;4897;43.570;27.832;2023-09-18T08:02:54;99648.16;;;25.26;100.00
9717;BME280;4897;43.570;27.832;2023-09-18T08:05:24;99647.28;;;25.39;94.88
9717;BME280;4897;43.570;27.832;2023-09-18T08:07:53;99643.91;;;25.76;81.47
9717;BME280;4897;43.570;27.832;2023-09-18T08:10:21;99651.91;;;26.29;72.88
9717;BME280;4897;43.570;27.832;2023-09-18T08:12:48;99602.19;;;26.19;63.29
9717;BME280;4897;43.570;27.832;2023-09-18T08:15:17;99643.25;;;26.63;63.29
9717;BME280;4897;43.570;27.832;2023-09-18T08:17:45;99641.72;;;27.47;56.09
9717;BME280;4897;43.570;27.832;2023-09-18T08:20:14;99637.31;;;28.37;49.04
9717;BME280;4897;43.570;27.832;2023-09-18T08:22:42;99635.44;;;28.19;49.82
9717;BME280;4897;43.570;27.832;2023-09-18T08:25:09;99638.41;;;27.82;51.15
9717;BME280;4897;43.570;27.832;2023-09-18T08:27:37;99639.06;;;27.16;55.01
9717;BME280;4897;43.570;27.832;2023-09-18T08:30:10;99647.94;;;26.56;56.19
9717;BME280;4897;43.570;27.832;2023-09-18T08:32:37;99637.66;;;26.13;57.65
9717;BME280;4897;43.570;27.832;2023-09-18T08:35:07;99632.91;;;27.82;51.67
9717;BME280;4897;43.570;27.832;2023-09-18T08:37:34;99627.88;;;27.60;53.81
9717;BME280;4897;43.570;27.832;2023-09-18T08:40:01;99631.66;;;28.32;52.72
9717;BME280;4897;43.570;27.832;2023-09-18T08:42:35;99621.41;;;31.09;43.35
9717;BME280;4897;43.570;27.832;2023-09-18T08:45:07;99616.41;;;31.22;41.41
9717;BME280;4897;43.570;27.832;2023-09-18T08:47:37;99624.00;;;29.63;44.53
9717;BME280;4897;43.570;27.832;2023-09-18T08:50:08;99623.75;;;31.17;42.40
9717;BME280;4897;43.570;27.832;2023-09-18T08:52:35;99609.59;;;32.28;39.94
9717;BME280;4897;43.570;27.832;2023-09-18T08:55:03;99603.75;;;33.41;37.86
9717;BME280;4897;43.570;27.832;2023-09-18T08:57:31;99591.25;;;34.52;34.63
9717;BME280;4897;43.570;27.832;2023-09-18T08:59:58;99601.59;;;35.12;34.28
9717;BME280;4897;43.570;27.832;2023-09-18T09:02:31;99597.50;;;36.58;32.31
9717;BME280;4897;43.570;27.832;2023-09-18T09:05:02;99592.78;;;36.58;31.18
9717;BME280;4897;43.570;27.832;2023-09-18T09:07:30;99585.63;;;37.72;30.11
9717;BME280;4897;43.570;27.832;2023-09-18T09:09:57;99605.06;;;37.30;30.54
9717;BME280;4897;43.570;27.832;2023-09-18T09:12:54;99602.16;;;36.72;30.56
9717;BME280;4897;43.570;27.832;2023-09-18T09:15:24;99613.19;;;35.80;31.26
9717;BME280;4897;43.570;27.832;2023-09-18T09:17:52;99597.38;;;36.29;30.65
9717;BME280;4897;43.570;27.832;2023-09-18T09:20:19;99601.78;;;36.45;30.41
9717;BME280;4897;43.570;27.832;2023-09-18T09:22:47;99593.00;;;36.67;30.29
9717;BME280;4897;43.570;27.832;2023-09-18T09:25:22;99616.06;;;36.77;31.13
9717;BME280;4897;43.570;27.832;2023-09-18T09:27:52;99611.97;;;36.11;32.31
9717;BME280;4897;43.570;27.832;2023-09-18T09:30:20;99600.19;;;35.10;33.27
9717;BME280;4897;43.570;27.832;2023-09-18T09:32:48;99599.75;;;36.07;32.51
9717;BME280;4897;43.570;27.832;2023-09-18T09:35:21;99617.66;;;36.88;30.20
9717;BME280;4897;43.570;27.832;2023-09-18T09:37:49;99595.88;;;38.48;28.77
9717;BME280;4897;43.570;27.832;2023-09-18T09:40:19;99600.25;;;38.54;29.10
9717;BME280;4897;43.570;27.832;2023-09-18T09:42:46;99614.09;;;37.50;30.59
9717;BME280;4897;43.570;27.832;2023-09-18T09:45:14;99604.97;;;37.92;30.20
9717;BME280;4897;43.570;27.832;2023-09-18T09:47:42;99608.81;;;35.23;32.80
9717;BME280;4897;43.570;27.832;2023-09-18T09:50:10;99593.41;;;33.32;35.70
9717;BME280;4897;43.570;27.832;2023-09-18T09:52:42;99603.75;;;35.66;33.61
9717;BME280;4897;43.570;27.832;2023-09-18T09:55:22;99600.28;;;37.35;30.48
9717;BME280;4897;43.570;27.832;2023-09-18T09:57:52;99578.56;;;37.27;31.08
9717;BME280;4897;43.570;27.832;2023-09-18T10:00:19;99595.94;;;38.61;29.48
9717;BME280;4897;43.570;27.832;2023-09-18T10:03:00;99564.31;;;39.17;29.30
9717;BME280;4897;43.570;27.832;2023-09-18T10:05:30;99592.53;;;38.83;29.54
9717;BME280;4897;43.570;27.832;2023-09-18T10:07:59;99600.53;;;36.61;31.39
9717;BME280;4897;43.570;27.832;2023-09-18T10:10:33;99481.28;;;32.76;34.33
9717;BME280;4897;43.570;27.832;2023-09-18T10:13:07;99590.97;;;32.23;36.80
9717;BME280;4897;43.570;27.832;2023-09-18T10:15:37;99584.56;;;31.96;38.09
9717;BME280;4897;43.570;27.832;2023-09-18T10:18:07;99592.38;;;31.23;39.25
9717;BME280;4897;43.570;27.832;2023-09-18T10:20:40;99588.16;;;29.86;42.58
9717;BME280;4897;43.570;27.832;2023-09-18T10:23:18;99597.25;;;31.71;40.26
9717;BME280;4897;43.570;27.832;2023-09-18T10:25:53;99601.22;;;30.30;41.60
9717;BME280;4897;43.570;27.832;2023-09-18T10:28:23;99597.66;;;30.46;41.79
9717;BME280;4897;43.570;27.832;2023-09-18T10:30:52;99602.06;;;29.68;42.41
9717;BME280;4897;43.570;27.832;2023-09-18T10:33:21;99596.13;;;29.25;44.01
9717;BME280;4897;43.570;27.832;2023-09-18T10:35:51;99594.66;;;29.57;43.12
9717;BME280;4897;43.570;27.832;2023-09-18T10:38:23;99590.50;;;31.83;38.81
9717;BME280;4897;43.570;27.832;2023-09-18T10:40:52;99584.59;;;33.81;35.83
9717;BME280;4897;43.570;27.832;2023-09-18T10:43:20;99581.47;;;34.35;35.08
9717;BME280;4897;43.570;27.832;2023-09-18T10:45:47;99578.44;;;35.57;33.42
9717;BME280;4897;43.570;27.832;2023-09-18T10:48:18;99571.53;;;34.54;33.45
9717;BME280;4897;43.570;27.832;2023-09-18T10:50:45;99570.34;;;32.89;35.25
9717;BME280;4897;43.570;27.832;2023-09-18T10:53:12;99579.47;;;32.90;35.73
9717;BME280;4897;43.570;27.832;2023-09-18T10:55:41;99563.78;;;34.71;33.34
9717;BME280;4897;43.570;27.832;2023-09-18T10:58:12;99570.16;;;33.84;33.50
9717;BME280;4897;43.570;27.832;2023-09-18T11:00:41;99575.72;;;33.01;34.40
9717;BME280;4897;43.570;27.832;2023-09-18T11:03:14;99551.53;;;34.87;32.64
9717;BME280;4897;43.570;27.832;2023-09-18T11:05:44;99551.59;;;35.91;31.71
9717;BME280;4897;43.570;27.832;2023-09-18T11:08:26;99570.31;;;34.30;33.57
9717;BME280;4897;43.570;27.832;2023-09-18T11:11:01;99564.88;;;34.85;32.37
9717;BME280;4897;43.570;27.832;2023-09-18T11:13:38;99551.06;;;35.84;31.53
9717;BME280;4897;43.570;27.832;2023-09-18T11:16:35;99566.72;;;35.70;31.59
9717;BME280;4897;43.570;27.832;2023-09-18T11:19:16;99574.34;;;34.69;32.89
9717;BME280;4897;43.570;27.832;2023-09-18T11:21:45;99544.16;;;33.02;34.24
9717;BME280;4897;43.570;27.832;2023-09-18T11:24:16;99579.81;;;31.70;35.71
9717;BME280;4897;43.570;27.832;2023-09-18T11:26:46;99579.22;;;31.13;36.40
9717;BME280;4897;43.570;27.832;2023-09-18T11:29:16;99570.72;;;32.98;34.02
9717;BME280;4897;43.570;27.832;2023-09-18T11:31:46;99562.69;;;31.35;35.58
9717;BME280;4897;43.570;27.832;2023-09-18T11:34:15;99563.19;;;32.62;34.86
9717;BME280;4897;43.570;27.832;2023-09-18T11:36:46;99552.41;;;33.91;32.79
9717;BME280;4897;43.570;27.832;2023-09-18T11:39:13;99546.81;;;35.08;31.74
9717;BME280;4897;43.570;27.832;2023-09-18T11:41:40;99549.78;;;36.26;29.76
9717;BME280;4897;43.570;27.832;2023-09-18T11:44:33;99554.31;;;36.60;28.87
9717;BME280;4897;43.570;27.832;2023-09-18T11:47:07;99544.28;;;36.59;29.22
9717;BME280;4897;43.570;27.832;2023-09-18T11:49:38;99551.28;;;36.91;29.10
9717;BME280;4897;43.570;27.832;2023-09-18T11:52:09;99547.28;;;37.02;28.86
9717;BME280;4897;43.570;27.832;2023-09-18T11:54:39;99536.06;;;38.49;28.08
9717;BME280;4897;43.570;27.832;2023-09-18T11:57:06;99535.13;;;38.34;29.11
9717;BME280;4897;43.570;27.832;2023-09-18T11:59:37;99535.59;;;38.42;29.44
9717;BME280;4897;43.570;27.832;2023-09-18T12:02:08;99532.47;;;36.72;32.26
9717;BME280;4897;43.570;27.832;2023-09-18T12:04:35;99557.94;;;34.88;33.52
9717;BME280;4897;43.570;27.832;2023-09-18T12:07:04;99524.13;;;33.94;34.13
9717;BME280;4897;43.570;27.832;2023-09-18T12:09:31;99535.06;;;32.80;36.35
9717;BME280;4897;43.570;27.832;2023-09-18T12:11:59;99531.69;;;32.14;40.27
9717;BME280;4897;43.570;27.832;2023-09-18T12:14:30;99557.25;;;32.26;39.28
9717;BME280;4897;43.570;27.832;2023-09-18T12:16:59;99551.50;;;31.63;40.57
9717;BME280;4897;43.570;27.832;2023-09-18T12:19:28;99543.88;;;32.45;40.00
9717;BME280;4897;43.570;27.832;2023-09-18T12:21:55;99534.66;;;33.97;37.04
9717;BME280;4897;43.570;27.832;2023-09-18T12:24:22;99530.44;;;32.54;39.00
9717;BME280;4897;43.570;27.832;2023-09-18T12:26:49;99521.50;;;30.95;42.06
9717;BME280;4897;43.570;27.832;2023-09-18T12:29:17;99526.91;;;30.12;43.91
9717;BME280;4897;43.570;27.832;2023-09-18T12:31:44;99539.75;;;30.07;46.62
9717;BME280;4897;43.570;27.832;2023-09-18T12:34:16;99541.16;;;31.97;41.34
9717;BME280;4897;43.570;27.832;2023-09-18T12:36:44;99511.16;;;34.04;36.80
9717;BME280;4897;43.570;27.832;2023-09-18T12:39:12;99523.16;;;34.90;35.68
9717;BME280;4897;43.570;27.832;2023-09-18T12:41:43;99543.16;;;35.38;34.69
9717;BME280;4897;43.570;27.832;2023-09-18T12:44:11;99529.00;;;36.08;34.00
9717;BME280;4897;43.570;27.832;2023-09-18T12:46:40;99509.78;;;34.12;34.98
9717;BME280;4897;43.570;27.832;2023-09-18T12:49:19;99534.78;;;33.13;36.45
9717;BME280;4897;43.570;27.832;2023-09-18T12:51:56;99529.81;;;34.44;34.59
9717;BME280;4897;43.570;27.832;2023-09-18T12:54:39;99538.44;;;33.65;34.48
9717;BME280;4897;43.570;27.832;2023-09-18T12:57:07;99526.44;;;34.12;34.84
9717;BME280;4897;43.570;27.832;2023-09-18T12:59:35;99525.97;;;34.80;34.31
9717;BME280;4897;43.570;27.832;2023-09-18T13:02:03;99527.47;;;35.77;33.40
9717;BME280;4897;43.570;27.832;2023-09-18T13:04:32;99517.94;;;37.09;31.52
9717;BME280;4897;43.570;27.832;2023-09-18T13:07:07;99499.47;;;37.66;30.90
9717;BME280;4897;43.570;27.832;2023-09-18T13:09:34;99509.91;;;38.39;29.59
9717;BME280;4897;43.570;27.832;2023-09-18T13:12:03;99488.72;;;38.71;28.11
9717;BME280;4897;43.570;27.832;2023-09-18T13:14:30;99509.50;;;37.43;31.26